createdAt,value
2018-02-03T00:03:22.814Z,100156.64
2018-02-03T00:08:24.220Z,100155.47
2018-02-03T00:13:25.580Z,100151.09
2018-02-03T00:18:26.900Z,100138.89
2018-02-03T00:23:28.219Z,100141.19
2018-02-03T00:28:29.518Z,100141.73
2018-02-03T00:33:30.864Z,100128.60
2018-02-03T00:38:32.207Z,100130.45
2018-02-03T00:43:34.299Z,100141.18
2018-02-03T00:48:35.630Z,100141.45
2018-02-03T00:53:36.942Z,100141.30
2018-02-03T00:58:38.268Z,100137.87
2018-02-03T01:03:39.583Z,100141.14
2018-02-03T01:08:40.918Z,100148.81
2018-02-03T01:13:42.249Z,100146.89
2018-02-03T01:18:44.334Z,100145.87
2018-02-03T01:23:45.687Z,100148.19
2018-02-03T01:28:47.015Z,100149.40
2018-02-03T01:33:48.384Z,100161.03
2018-02-03T01:38:49.703Z,100162.83
2018-02-03T01:43:51.735Z,100167.19
2018-02-03T01:48:53.071Z,100158.99
2018-02-03T01:53:54.386Z,100158.92
2018-02-03T01:58:55.691Z,100162.45
2018-02-03T02:03:57.809Z,100163.28
2018-02-03T02:08:59.549Z,100161.87
2018-02-03T02:14:00.933Z,100161.68
2018-02-03T02:19:02.473Z,100167.80
2018-02-03T02:24:04.559Z,100170.45
2018-02-03T02:29:05.912Z,100174.22
2018-02-03T02:34:07.218Z,100175.70
2018-02-03T02:39:08.543Z,100168.91
2018-02-03T02:44:10.590Z,100170.03
2018-02-03T02:49:11.916Z,100165.06
2018-02-03T02:54:13.243Z,100153.28
2018-02-03T02:59:14.554Z,100155.73
2018-02-03T03:04:15.881Z,100150.76
2018-02-03T03:09:17.210Z,100152.02
2018-02-03T03:14:19.298Z,100155.55
2018-02-03T03:19:20.619Z,100146.30
2018-02-03T03:24:21.938Z,100150.80
2018-02-03T03:29:23.267Z,100146.62
2018-02-03T03:34:24.610Z,100148.87
2018-02-03T03:39:25.946Z,100154.61
2018-02-03T03:44:27.279Z,100157.48
2018-02-03T03:49:28.606Z,100154.80
2018-02-03T03:54:29.941Z,100148.95
2018-02-03T03:59:31.270Z,100150.83
2018-02-03T04:04:32.649Z,100152.66
2018-02-03T04:09:34.013Z,100158.40
2018-02-03T04:14:35.337Z,100152.56
2018-02-03T04:19:36.693Z,100154.62
2018-02-03T04:24:38.818Z,100159.66
2018-02-03T04:29:40.158Z,100160.84
2018-02-03T04:34:41.498Z,100164.23
2018-02-03T04:39:42.834Z,100171.25
2018-02-03T04:44:44.207Z,100158.75
2018-02-03T04:49:45.565Z,100170.09
2018-02-03T04:54:46.920Z,100168.66
2018-02-03T04:59:48.982Z,100164.70
2018-02-03T05:04:50.319Z,100164.84
2018-02-03T05:09:51.645Z,100164.58
2018-02-03T05:14:52.951Z,100160.02
2018-02-03T05:19:54.275Z,100152.55
2018-02-03T05:24:56.310Z,100144.50
2018-02-03T05:29:57.610Z,100142.24
2018-02-03T05:34:58.978Z,100150.65
2018-02-03T05:40:00.307Z,100142.81
2018-02-03T05:45:04.578Z,100141.95
2018-02-03T05:50:05.934Z,100138.09
2018-02-03T05:55:07.239Z,100135.83
2018-02-03T06:00:08.602Z,100138.42
2018-02-03T06:05:09.934Z,100133.36
2018-02-03T06:10:11.270Z,100141.38
2018-02-03T06:15:12.566Z,100143.73
2018-02-03T06:20:13.963Z,100142.87
2018-02-03T06:25:15.364Z,100136.92
2018-02-03T06:30:16.706Z,100143.80
2018-02-03T06:35:18.055Z,100147.12
2018-02-03T06:40:19.514Z,100151.75
2018-02-03T06:45:21.583Z,100149.98
2018-02-03T06:50:22.915Z,100163.58
2018-02-03T06:55:24.228Z,100158.85
2018-02-03T07:00:26.259Z,100163.81
2018-02-03T07:05:27.636Z,100171.69
2018-02-03T07:10:29.039Z,100179.93
2018-02-03T07:15:31.287Z,100177.03
2018-02-03T07:20:33.654Z,100176.34
2018-02-03T07:25:35.122Z,100177.34
2018-02-03T07:30:36.512Z,100180.03
2018-02-03T07:35:39.071Z,100184.69
2018-02-03T07:40:40.406Z,100185.77
2018-02-03T07:45:43.038Z,100179.62
2018-02-03T07:50:44.434Z,100186.03
2018-02-03T07:55:45.838Z,100187.66
2018-02-03T08:00:47.147Z,100178.89
2018-02-03T08:05:49.152Z,100174.69
2018-02-03T08:10:51.162Z,100181.66
2018-02-03T08:15:52.904Z,100186.60
2018-02-03T08:20:54.310Z,100190.38
2018-02-03T08:25:56.562Z,100188.53
2018-02-03T08:30:58.021Z,100184.92
2018-02-03T08:35:59.356Z,100179.13
2018-02-03T08:41:00.894Z,100177.77
2018-02-03T08:46:02.408Z,100178.52
2018-02-03T08:51:03.789Z,100170.96
2018-02-03T08:56:06.598Z,100172.41
2018-02-03T09:01:07.955Z,100161.03
2018-02-03T09:06:09.354Z,100167.76
2018-02-03T09:11:10.711Z,100175.42
2018-02-03T09:16:12.048Z,100178.58
2018-02-03T09:21:14.266Z,100188.53
2018-02-03T09:26:15.636Z,100178.34
2018-02-03T09:31:17.784Z,100171.75
2018-02-03T09:36:19.142Z,100171.35
2018-02-03T09:41:21.231Z,100169.41
2018-02-03T09:46:22.550Z,100162.09
2018-02-03T09:51:23.966Z,100164.91
2018-02-03T09:56:25.329Z,100171.70
2018-02-03T10:01:27.402Z,100170.97
2018-02-03T10:06:28.728Z,100172.23
2018-02-03T10:11:30.114Z,100173.27
2018-02-03T10:16:31.470Z,100172.84
2018-02-03T10:21:32.822Z,100177.64
2018-02-03T10:26:34.210Z,100180.92
2018-02-03T10:31:35.574Z,100167.03
2018-02-03T10:36:37.012Z,100152.67
2018-02-03T10:41:38.356Z,100157.52
2018-02-03T10:46:39.670Z,100161.61
2018-02-03T10:51:41.010Z,100159.56
2018-02-03T10:56:42.404Z,100159.31
2018-02-03T11:01:44.475Z,100153.48
2018-02-03T11:06:45.887Z,100141.26
2018-02-03T11:11:47.211Z,100136.86
2018-02-03T11:16:49.366Z,100133.69
2018-02-03T11:21:50.804Z,100133.23
2018-02-03T11:26:52.914Z,100138.58
2018-02-03T11:31:54.237Z,100130.70
2018-02-03T11:36:55.647Z,100137.41
2018-02-03T11:41:56.986Z,100137.95
2018-02-03T11:46:58.462Z,100136.31
2018-02-03T11:52:01.184Z,100129.62
2018-02-03T11:57:03.251Z,100126.45
2018-02-03T12:02:04.596Z,100117.88
2018-02-03T12:07:06.651Z,100130.23
2018-02-03T12:12:07.974Z,100122.08
2018-02-03T12:17:09.352Z,100116.11
2018-02-03T12:22:10.727Z,100117.80
2018-02-03T12:27:12.056Z,100097.95
2018-02-03T12:32:13.393Z,100124.61
2018-02-03T12:37:14.789Z,100124.28
2018-02-03T12:42:16.921Z,100114.69
2018-02-03T12:47:18.250Z,100113.14
2018-02-03T12:52:19.626Z,100106.66
2018-02-03T12:57:20.971Z,100107.36
2018-02-03T13:02:22.278Z,100093.43
2018-02-03T13:07:23.602Z,100097.87
2018-02-03T13:12:24.986Z,100103.73
2018-02-03T13:17:26.346Z,100105.06
2018-02-03T13:22:27.673Z,100101.42
2018-02-03T13:27:28.983Z,100097.13
2018-02-03T13:32:30.374Z,100102.32
2018-02-03T13:37:31.723Z,100100.16
2018-02-03T13:42:33.066Z,100100.25
2018-02-03T13:47:34.436Z,100097.56
2018-02-03T13:52:35.783Z,100105.36
2018-02-03T13:57:37.095Z,100115.19
2018-02-03T14:02:38.410Z,100108.77
2018-02-03T14:07:39.745Z,100101.47
2018-02-03T14:12:41.087Z,100108.94
2018-02-03T14:17:42.424Z,100114.72
2018-02-03T14:22:43.754Z,100113.99
2018-02-03T14:27:45.121Z,100109.47
2018-02-03T14:32:47.174Z,100106.92
2018-02-03T14:37:48.502Z,100101.30
2018-02-03T14:42:50.023Z,100103.28
2018-02-03T14:47:51.398Z,100104.22
2018-02-03T14:52:53.467Z,100101.16
2018-02-03T14:57:54.832Z,100106.23
2018-02-03T15:02:56.131Z,100100.17
2018-02-03T15:07:57.536Z,100109.80
2018-02-03T15:12:59.164Z,100114.67
2018-02-03T15:18:00.620Z,100116.29
2018-02-03T15:23:01.998Z,100118.55
2018-02-03T15:28:03.396Z,100123.69
2018-02-03T15:33:04.732Z,100122.11
2018-02-03T15:38:06.846Z,100131.15
2018-02-03T15:43:08.927Z,100139.97
2018-02-03T15:48:10.270Z,100141.13
2018-02-03T15:53:11.619Z,100147.19
2018-02-03T15:58:12.947Z,100146.44
2018-02-03T16:03:14.285Z,100137.08
2018-02-03T16:08:15.757Z,100153.33
2018-02-03T16:13:17.102Z,100154.91
2018-02-03T16:18:18.452Z,100155.58
2018-02-03T16:23:19.774Z,100160.65
2018-02-03T16:28:21.104Z,100168.99
2018-02-03T16:33:22.417Z,100166.14
2018-02-03T16:38:23.840Z,100180.36
2018-02-03T16:43:25.930Z,100174.30
2018-02-03T16:48:28.004Z,100177.69
2018-02-03T16:53:29.319Z,100185.80
2018-02-03T16:58:30.718Z,100190.63
2018-02-03T17:03:32.785Z,100195.64
2018-02-03T17:08:34.096Z,100204.95
2018-02-03T17:13:35.435Z,100216.00
2018-02-03T17:18:36.755Z,100220.55
2018-02-03T17:23:38.139Z,100219.59
2018-02-03T17:28:39.525Z,100218.52
2018-02-03T17:33:40.909Z,100222.60
2018-02-03T17:38:53.035Z,100231.66
2018-02-03T17:43:54.339Z,100244.65
2018-02-03T17:48:55.688Z,100249.39
2018-02-03T17:53:57.973Z,100248.52
2018-02-03T17:59:00.327Z,100246.84
2018-02-03T18:04:01.655Z,100253.55
2018-02-03T18:09:03.023Z,100270.23
2018-02-03T18:14:04.348Z,100268.13
2018-02-03T18:19:05.660Z,100265.95
2018-02-03T18:24:07.016Z,100265.87
2018-02-03T18:29:08.354Z,100271.17
2018-02-03T18:34:10.093Z,100275.86
2018-02-03T18:39:12.004Z,100277.04
2018-02-03T18:44:13.399Z,100288.65
2018-02-03T18:49:14.752Z,100283.84
2018-02-03T18:54:16.214Z,100292.09
2018-02-03T18:59:18.274Z,100288.63
2018-02-03T19:04:19.624Z,100291.95
2018-02-03T19:09:21.031Z,100299.41
2018-02-03T19:14:22.378Z,100308.43
2018-02-03T19:19:23.706Z,100311.39
2018-02-03T19:24:25.763Z,100313.56
2018-02-03T19:29:27.113Z,100308.84
2018-02-03T19:34:28.559Z,100325.14
2018-02-03T19:39:29.887Z,100327.61
2018-02-03T19:44:31.987Z,100340.98
2018-02-03T19:49:33.305Z,100332.77
2018-02-03T19:54:34.618Z,100343.52
2018-02-03T19:59:39.042Z,100351.82
2018-02-03T20:04:40.427Z,100358.56
2018-02-03T20:09:42.539Z,100356.94
2018-02-03T20:14:43.846Z,100362.48
2018-02-03T20:19:45.175Z,100363.04
2018-02-03T20:24:46.514Z,100365.61
2018-02-03T20:29:47.887Z,100371.83
2018-02-03T20:34:50.016Z,100381.22
2018-02-03T20:39:51.343Z,100385.02
2018-02-03T20:44:52.672Z,100388.10
2018-02-03T20:49:54.770Z,100389.80
2018-02-03T20:54:56.842Z,100399.43
2018-02-03T20:59:58.177Z,100406.25
2018-02-03T21:05:00.231Z,100405.77
2018-02-03T21:10:01.578Z,100414.81
2018-02-03T21:15:03.680Z,100419.59
2018-02-03T21:20:05.050Z,100432.94
2018-02-03T21:25:06.391Z,100437.76
2018-02-03T21:30:07.816Z,100448.14
2018-02-03T21:35:09.226Z,100461.08
2018-02-03T21:40:10.647Z,100464.95
2018-02-03T21:45:11.970Z,100474.80
2018-02-03T21:50:13.312Z,100477.80
2018-02-03T21:55:15.392Z,100486.45
2018-02-03T22:00:16.759Z,100490.81
2018-02-03T22:05:18.283Z,100499.38
2018-02-03T22:10:19.622Z,100514.50
2018-02-03T22:15:21.042Z,100520.56
2018-02-03T22:20:22.435Z,100530.89
2018-02-03T22:25:23.831Z,100527.92
2018-02-03T22:30:25.163Z,100542.13
2018-02-03T22:35:26.537Z,100543.06
2018-02-03T22:40:28.838Z,100539.08
2018-02-03T22:45:30.220Z,100555.50
2018-02-03T22:50:31.554Z,100558.90
2018-02-03T22:55:32.924Z,100568.84
2018-02-03T23:00:35.706Z,100569.29
2018-02-03T23:05:35.707Z,100577.09
2018-02-03T23:10:38.011Z,100577.09
2018-02-03T23:15:40.146Z,100579.25
2018-02-03T23:20:41.638Z,100586.97
2018-02-03T23:25:42.949Z,100595.59
2018-02-03T23:30:44.546Z,100611.54
2018-02-03T23:35:45.953Z,100609.38
2018-02-03T23:40:47.314Z,100620.14
2018-02-03T23:45:48.646Z,100621.02
2018-02-03T23:50:50.022Z,100635.61
2018-02-03T23:55:51.334Z,100647.69
